Time;durP1;ratioP1;P1;durP2;ratioP2;P2;SDS_P1;SDS_P2;PMS_P1;PMS_P2;Temp;Humidity;BMP_temperature;BMP_pressure;BME280_temperature;BME280_humidity;BME280_pressure;Samples;Min_cycle;Max_cycle;Signal;HPM_P1;HPM_P2
2023/08/13 00:02:10;;;;;;;1.52;1.10;;;25.40;50.50;;;;;;5082998;28;20302;-68
2023/08/13 00:04:36;;;;;;;3.20;1.30;;;25.50;50.60;;;;;;5094972;28;20031;-65
2023/08/13 00:07:02;;;;;;;2.88;1.30;;;25.40;50.50;;;;;;5072549;28;20029;-69
2023/08/13 00:09:28;;;;;;;2.45;1.02;;;25.40;50.50;;;;;;5094599;28;20414;-66
2023/08/13 00:11:54;;;;;;;2.92;1.45;;;25.40;50.50;;;;;;5094938;28;20032;-66
2023/08/13 00:14:20;;;;;;;3.47;1.20;;;25.40;50.50;;;;;;5094256;28;20422;-72
2023/08/13 00:16:47;;;;;;;2.70;1.20;;;25.30;50.40;;;;;;5092394;28;20020;-68
2023/08/13 00:19:16;;;;;;;2.97;1.35;;;25.40;50.50;;;;;;5073303;28;20039;-70
2023/08/13 00:21:42;;;;;;;1.98;1.08;;;25.40;50.40;;;;;;5074280;28;20035;-65
2023/08/13 00:24:08;;;;;;;2.33;1.00;;;25.30;50.40;;;;;;5056322;28;20361;-65
2023/08/13 00:26:36;;;;;;;2.38;1.15;;;25.40;50.50;;;;;;5056248;28;20036;-65
2023/08/13 00:29:04;;;;;;;2.72;1.10;;;25.30;50.40;;;;;;5055323;28;20063;-66
2023/08/13 00:31:32;;;;;;;2.22;1.00;;;25.30;50.30;;;;;;5074378;28;20032;-65
2023/08/13 00:33:58;;;;;;;2.92;1.10;;;25.30;50.40;;;;;;5093028;28;20357;-64
2023/08/13 00:36:24;;;;;;;2.20;1.23;;;25.30;50.40;;;;;;5064520;28;20040;-65
2023/08/13 00:38:50;;;;;;;1.95;1.00;;;25.30;50.40;;;;;;5059171;28;20037;-63
2023/08/13 00:41:16;;;;;;;2.10;1.13;;;25.30;50.40;;;;;;5036070;28;20125;-65
2023/08/13 00:43:41;;;;;;;3.15;1.30;;;25.30;50.40;;;;;;5053773;28;20029;-66
2023/08/13 00:46:08;;;;;;;3.40;1.10;;;25.30;50.40;;;;;;5063342;28;20410;-63
2023/08/13 00:48:37;;;;;;;2.45;1.00;;;25.30;50.40;;;;;;5079916;28;20281;-64
2023/08/13 00:51:04;;;;;;;3.17;1.35;;;25.30;50.40;;;;;;5055782;28;20412;-65
2023/08/13 00:53:30;;;;;;;2.72;0.93;;;25.30;50.40;;;;;;5073602;28;20056;-64
2023/08/13 00:55:57;;;;;;;2.05;1.00;;;25.30;50.40;;;;;;5067559;28;20052;-65
2023/08/13 00:58:23;;;;;;;3.42;1.20;;;25.30;50.40;;;;;;5045171;28;20305;-64
2023/08/13 01:00:49;;;;;;;1.98;1.00;;;25.30;50.40;;;;;;5052417;28;20025;-65
2023/08/13 01:03:15;;;;;;;2.60;1.20;;;25.30;50.40;;;;;;5088509;28;20127;-63
2023/08/13 01:05:54;;;;;;;3.25;1.20;;;25.30;50.40;;;;;;5075621;28;20036;-64
2023/08/13 01:08:36;;;;;;;2.58;0.93;;;25.30;50.40;;;;;;5088057;28;20043;-65
2023/08/13 01:11:17;;;;;;;3.13;1.23;;;25.30;50.40;;;;;;5075420;28;20319;-64
2023/08/13 01:13:55;;;;;;;3.17;1.20;;;25.30;50.40;;;;;;5075701;28;20436;-64
2023/08/13 01:16:22;;;;;;;2.50;0.93;;;25.30;50.40;;;;;;5079983;28;20111;-64
2023/08/13 01:18:49;;;;;;;2.85;1.00;;;25.30;50.40;;;;;;5074625;28;20055;-63
2023/08/13 01:21:14;;;;;;;5.38;1.38;;;25.20;50.40;;;;;;5072540;28;20043;-66
2023/08/13 01:23:40;;;;;;;2.33;1.00;;;25.20;50.40;;;;;;5055014;28;20459;-64
2023/08/13 01:26:17;;;;;;;2.55;1.20;;;25.20;50.40;;;;;;5072959;28;20454;-66
2023/08/13 01:29:06;;;;;;;2.05;1.23;;;25.20;50.40;;;;;;5041061;28;20037;-66
2023/08/13 01:31:37;;;;;;;2.53;1.08;;;25.20;50.40;;;;;;5051292;28;20076;-63
2023/08/13 01:34:04;;;;;;;3.33;1.30;;;25.20;50.40;;;;;;5052512;28;20100;-64
2023/08/13 01:36:32;;;;;;;2.05;0.88;;;25.20;50.40;;;;;;5035079;28;20589;-66
2023/08/13 01:38:59;;;;;;;2.40;1.10;;;25.20;50.40;;;;;;5049851;28;20366;-64
2023/08/13 01:41:43;;;;;;;1.98;1.10;;;25.20;50.40;;;;;;5054751;28;20120;-64
2023/08/13 01:44:09;;;;;;;1.38;1.00;;;25.20;50.40;;;;;;5072858;28;20024;-64
2023/08/13 01:46:35;;;;;;;2.30;1.00;;;25.20;50.40;;;;;;5063998;28;20045;-65
2023/08/13 01:49:01;;;;;;;2.85;1.05;;;25.20;50.40;;;;;;5076457;28;20153;-65
2023/08/13 01:51:27;;;;;;;2.72;1.30;;;25.20;50.40;;;;;;5072611;28;20039;-64
2023/08/13 01:53:53;;;;;;;1.65;0.85;;;25.20;50.50;;;;;;5072586;28;20028;-64
2023/08/13 01:56:19;;;;;;;2.25;0.85;;;25.20;50.50;;;;;;5056425;28;20048;-65
2023/08/13 01:58:45;;;;;;;3.15;1.40;;;25.20;50.50;;;;;;5034780;28;20386;-65
2023/08/13 02:01:11;;;;;;;2.28;1.20;;;25.20;50.40;;;;;;5034608;28;20052;-64
2023/08/13 02:03:36;;;;;;;1.52;0.90;;;25.20;50.50;;;;;;5052649;28;20036;-64
2023/08/13 02:06:02;;;;;;;1.73;0.98;;;25.20;50.50;;;;;;5034179;28;20033;-64
2023/08/13 02:08:28;;;;;;;2.60;0.90;;;25.20;50.50;;;;;;5064735;28;20366;-64
2023/08/13 02:10:54;;;;;;;2.25;1.10;;;25.20;50.50;;;;;;5074142;28;20028;-64
2023/08/13 02:13:20;;;;;;;3.38;1.02;;;25.10;50.40;;;;;;5074373;28;20027;-64
2023/08/13 02:15:46;;;;;;;2.03;1.00;;;25.10;50.40;;;;;;5062418;28;20075;-64
2023/08/13 02:18:12;;;;;;;2.80;1.08;;;25.10;50.50;;;;;;5052649;28;20101;-66
2023/08/13 02:20:38;;;;;;;3.70;1.35;;;25.20;50.50;;;;;;5072277;28;20349;-66
2023/08/13 02:23:04;;;;;;;2.97;0.90;;;25.20;50.60;;;;;;5058112;28;20100;-63
2023/08/13 02:25:29;;;;;;;1.92;0.98;;;25.10;50.50;;;;;;5067978;28;20095;-66
2023/08/13 02:27:57;;;;;;;2.70;0.90;;;25.10;50.50;;;;;;5052268;28;20029;-65
2023/08/13 02:30:25;;;;;;;1.83;1.00;;;25.10;50.50;;;;;;5069138;28;20033;-63
2023/08/13 02:32:51;;;;;;;2.28;1.30;;;25.10;50.50;;;;;;5078961;28;20039;-65
2023/08/13 02:35:17;;;;;;;2.60;1.25;;;25.10;50.60;;;;;;5074194;28;20047;-65
2023/08/13 02:37:43;;;;;;;2.95;1.05;;;25.10;50.60;;;;;;5092561;28;20124;-64
2023/08/13 02:40:09;;;;;;;2.42;0.90;;;25.10;50.60;;;;;;5092491;28;20047;-64
2023/08/13 02:42:36;;;;;;;1.90;0.68;;;25.10;51.20;;;;;;5063522;28;20044;-63
2023/08/13 02:45:02;;;;;;;2.55;0.90;;;25.10;50.60;;;;;;5054036;28;20392;-64
2023/08/13 02:47:28;;;;;;;3.25;1.08;;;25.00;50.50;;;;;;5062207;28;20060;-65
2023/08/13 02:49:54;;;;;;;1.60;0.90;;;25.10;50.60;;;;;;5072464;28;20036;-63
2023/08/13 02:52:22;;;;;;;1.60;0.90;;;25.10;50.60;;;;;;5052814;28;20116;-64
2023/08/13 02:54:48;;;;;;;2.45;1.17;;;25.10;50.60;;;;;;5071922;28;20120;-65
2023/08/13 02:57:14;;;;;;;2.38;1.10;;;25.00;50.60;;;;;;5053911;28;20025;-64
2023/08/13 02:59:40;;;;;;;2.78;1.08;;;25.00;50.60;;;;;;5072081;28;20116;-65
2023/08/13 03:02:06;;;;;;;2.17;1.00;;;25.10;50.70;;;;;;5055832;28;20032;-64
2023/08/13 03:04:31;;;;;;;2.63;1.02;;;25.00;50.60;;;;;;5054126;28;20032;-65
2023/08/13 03:06:57;;;;;;;2.47;1.13;;;25.00;50.60;;;;;;5055005;28;20085;-65
2023/08/13 03:09:23;;;;;;;3.42;1.00;;;25.00;50.60;;;;;;5069161;28;20048;-64
2023/08/13 03:11:49;;;;;;;1.88;1.00;;;25.00;50.60;;;;;;5063410;28;20210;-64
2023/08/13 03:14:16;;;;;;;2.38;1.00;;;25.00;50.60;;;;;;5053445;28;20039;-67
2023/08/13 03:16:42;;;;;;;2.63;0.90;;;25.00;50.50;;;;;;5055089;28;20055;-64
2023/08/13 03:19:09;;;;;;;2.70;1.20;;;25.00;50.50;;;;;;5054471;28;20084;-64
2023/08/13 03:21:35;;;;;;;3.67;1.10;;;25.00;50.50;;;;;;5053171;28;20029;-64
2023/08/13 03:24:01;;;;;;;2.17;1.10;;;25.00;50.50;;;;;;5045092;28;20028;-64
2023/08/13 03:26:27;;;;;;;2.00;0.90;;;25.00;50.50;;;;;;5033682;28;20039;-63
2023/08/13 03:28:53;;;;;;;3.35;1.30;;;25.00;50.50;;;;;;5047579;28;20032;-65
2023/08/13 03:31:20;;;;;;;2.42;0.85;;;25.00;50.50;;;;;;5053063;28;20029;-66
2023/08/13 03:33:51;;;;;;;1.98;0.90;;;25.00;50.40;;;;;;5055258;28;20062;-64
2023/08/13 03:36:17;;;;;;;4.70;1.20;;;25.00;50.40;;;;;;5073443;28;20127;-65
2023/08/13 03:38:43;;;;;;;3.13;1.15;;;25.00;50.40;;;;;;5064738;28;20115;-64
2023/08/13 03:41:09;;;;;;;3.17;1.13;;;25.00;50.40;;;;;;5074643;28;20039;-65
2023/08/13 03:43:35;;;;;;;1.90;0.80;;;24.90;50.40;;;;;;5055312;28;20079;-65
2023/08/13 03:46:04;;;;;;;2.40;1.00;;;24.90;50.40;;;;;;5057099;28;20111;-64
2023/08/13 03:48:30;;;;;;;2.35;1.02;;;24.90;50.40;;;;;;5081050;28;20067;-67
2023/08/13 03:50:56;;;;;;;2.53;1.10;;;24.90;50.40;;;;;;5057151;28;20029;-63
2023/08/13 03:53:24;;;;;;;2.15;0.82;;;24.90;50.30;;;;;;5040021;28;20039;-65
2023/08/13 03:55:52;;;;;;;2.47;0.90;;;24.90;50.30;;;;;;5056407;28;20032;-65
2023/08/13 03:58:17;;;;;;;2.72;1.05;;;24.90;50.40;;;;;;5073944;28;20378;-64
2023/08/13 04:00:43;;;;;;;2.75;1.08;;;24.90;50.30;;;;;;5056495;28;20110;-64
2023/08/13 04:03:09;;;;;;;2.88;1.10;;;24.90;50.40;;;;;;5072674;28;20151;-65
2023/08/13 04:05:35;;;;;;;2.28;0.90;;;24.90;50.40;;;;;;5076324;28;20036;-64
2023/08/13 04:08:02;;;;;;;2.45;1.25;;;24.90;50.40;;;;;;5045942;28;20039;-66
2023/08/13 04:10:29;;;;;;;2.63;0.90;;;24.90;50.40;;;;;;5056246;28;20427;-65
2023/08/13 04:13:00;;;;;;;2.67;0.90;;;24.90;50.40;;;;;;5056356;28;20150;-63
2023/08/13 04:15:27;;;;;;;3.83;1.20;;;24.90;51.00;;;;;;5056479;28;20101;-64
2023/08/13 04:17:53;;;;;;;3.00;1.40;;;24.90;50.40;;;;;;5061408;28;20028;-64
2023/08/13 04:20:20;;;;;;;3.10;1.10;;;24.90;50.40;;;;;;5073680;28;20036;-64
2023/08/13 04:22:46;;;;;;;2.30;0.80;;;24.90;50.40;;;;;;5094551;28;20119;-64
2023/08/13 04:25:12;;;;;;;3.90;1.42;;;24.90;50.40;;;;;;5076641;28;20123;-66
2023/08/13 04:27:38;;;;;;;3.53;1.13;;;24.90;50.40;;;;;;5055888;28;20051;-66
2023/08/13 04:30:06;;;;;;;3.13;1.35;;;24.90;50.40;;;;;;5052668;28;20094;-66
2023/08/13 04:32:32;;;;;;;3.63;1.13;;;24.90;50.40;;;;;;5070169;28;20036;-64
2023/08/13 04:34:59;;;;;;;3.05;1.10;;;24.80;50.40;;;;;;5063455;28;20131;-66
2023/08/13 04:37:25;;;;;;;3.15;1.25;;;24.80;50.40;;;;;;5075056;28;20032;-67
2023/08/13 04:39:51;;;;;;;2.80;1.00;;;24.90;50.50;;;;;;5076156;28;20113;-65
2023/08/13 04:42:17;;;;;;;2.72;1.13;;;24.90;50.60;;;;;;5094245;28;20024;-67
2023/08/13 04:44:43;;;;;;;2.92;1.10;;;24.80;50.60;;;;;;5040080;28;20087;-64
2023/08/13 04:47:09;;;;;;;3.25;1.17;;;24.80;50.60;;;;;;5068969;28;20045;-63
2023/08/13 04:49:35;;;;;;;3.78;1.23;;;24.90;50.70;;;;;;5038530;28;20390;-64
2023/08/13 04:52:02;;;;;;;2.53;0.98;;;24.80;50.70;;;;;;5071044;28;20080;-63
2023/08/13 04:54:28;;;;;;;2.58;0.95;;;24.80;50.70;;;;;;5057801;28;20153;-65
2023/08/13 04:56:55;;;;;;;2.88;1.05;;;24.80;50.70;;;;;;5055534;28;20036;-65
2023/08/13 04:59:21;;;;;;;2.63;0.90;;;24.80;50.60;;;;;;5055720;28;20055;-63
2023/08/13 05:01:48;;;;;;;2.08;0.77;;;24.80;50.70;;;;;;5043280;28;20029;-65
2023/08/13 05:04:14;;;;;;;5.70;1.00;;;24.80;50.70;;;;;;5074144;28;20028;-65
2023/08/13 05:06:40;;;;;;;2.25;0.95;;;24.80;50.60;;;;;;5064715;28;20041;-66
2023/08/13 05:09:06;;;;;;;2.47;0.90;;;24.80;50.60;;;;;;5056446;28;20039;-66
2023/08/13 05:11:32;;;;;;;3.75;1.02;;;24.80;50.70;;;;;;5075378;28;20031;-65
2023/08/13 05:13:58;;;;;;;2.95;1.20;;;24.80;50.70;;;;;;5052937;28;20344;-66
2023/08/13 05:16:24;;;;;;;2.72;1.00;;;24.80;50.70;;;;;;5048484;28;20045;-64
2023/08/13 05:18:52;;;;;;;3.72;0.95;;;24.80;50.70;;;;;;5055872;28;20024;-63
2023/08/13 05:21:18;;;;;;;3.22;0.98;;;24.80;50.70;;;;;;5093211;28;20113;-64
2023/08/13 05:23:44;;;;;;;2.85;0.95;;;24.80;50.70;;;;;;5075173;28;20112;-65
2023/08/13 05:26:13;;;;;;;4.35;1.15;;;24.90;50.70;;;;;;5075625;28;20335;-64
2023/08/13 05:28:40;;;;;;;2.25;1.10;;;24.80;50.70;;;;;;5055173;28;20044;-66
2023/08/13 05:31:05;;;;;;;3.00;1.10;;;24.80;50.70;;;;;;5054929;28;20036;-66
2023/08/13 05:33:32;;;;;;;2.22;0.90;;;24.80;50.80;;;;;;5067419;28;20104;-67
2023/08/13 05:35:58;;;;;;;1.70;0.90;;;24.90;50.80;;;;;;5074074;28;20043;-64
2023/08/13 05:38:24;;;;;;;3.63;1.00;;;24.80;50.80;;;;;;5056552;28;20037;-64
2023/08/13 05:40:50;;;;;;;1.92;0.80;;;24.80;50.80;;;;;;5054851;28;20146;-65
2023/08/13 05:43:16;;;;;;;2.28;1.00;;;24.90;50.90;;;;;;5073074;28;20032;-65
2023/08/13 05:45:43;;;;;;;4.80;0.95;;;24.80;50.90;;;;;;5056535;28;20059;-65
2023/08/13 05:48:09;;;;;;;3.78;1.10;;;24.90;50.90;;;;;;5040711;28;20356;-64
2023/08/13 05:50:35;;;;;;;3.28;1.10;;;24.90;50.90;;;;;;5031132;28;20026;-64
2023/08/13 05:53:01;;;;;;;2.42;0.90;;;24.80;50.90;;;;;;5032604;28;20080;-64
2023/08/13 05:55:27;;;;;;;2.60;0.70;;;24.90;51.00;;;;;;5032786;28;20119;-66
2023/08/13 05:57:56;;;;;;;2.40;0.93;;;24.90;51.00;;;;;;5032891;28;20314;-64
2023/08/13 06:00:22;;;;;;;2.90;1.00;;;24.90;51.00;;;;;;5032288;28;20440;-65
2023/08/13 06:02:48;;;;;;;2.33;0.93;;;24.90;51.00;;;;;;5033033;28;21647;-65
2023/08/13 06:05:14;;;;;;;3.40;1.35;;;24.90;51.00;;;;;;5051596;28;20039;-63
2023/08/13 06:07:40;;;;;;;3.15;1.15;;;24.90;51.00;;;;;;5045835;28;20036;-65
2023/08/13 06:10:06;;;;;;;3.25;1.10;;;24.80;50.90;;;;;;5036136;28;20472;-64
2023/08/13 06:12:33;;;;;;;1.92;0.98;;;24.90;51.00;;;;;;5032313;28;20029;-63
2023/08/13 06:14:59;;;;;;;3.60;1.25;;;24.90;51.00;;;;;;5033108;28;20136;-66
2023/08/13 06:17:25;;;;;;;1.73;0.93;;;24.90;51.00;;;;;;5032234;28;20047;-65
2023/08/13 06:19:52;;;;;;;3.58;1.15;;;24.90;51.00;;;;;;5030818;28;20042;-65
2023/08/13 06:22:18;;;;;;;3.85;1.13;;;24.90;51.00;;;;;;5032287;28;20091;-64
2023/08/13 06:24:44;;;;;;;3.42;1.20;;;24.80;50.90;;;;;;5031134;28;20375;-65
2023/08/13 06:27:10;;;;;;;3.40;1.15;;;24.90;50.90;;;;;;5034981;28;20341;-66
2023/08/13 06:29:36;;;;;;;3.55;1.00;;;24.90;50.90;;;;;;5029753;28;20041;-63
2023/08/13 06:32:02;;;;;;;2.50;0.95;;;24.90;50.90;;;;;;5024722;28;20363;-64
2023/08/13 06:34:28;;;;;;;2.63;1.00;;;24.90;50.90;;;;;;5027895;28;20445;-65
2023/08/13 06:36:54;;;;;;;2.40;0.80;;;24.90;50.90;;;;;;5023346;28;20101;-63
2023/08/13 06:39:21;;;;;;;3.05;0.90;;;24.90;50.90;;;;;;5026167;28;20033;-66
2023/08/13 06:41:47;;;;;;;2.80;0.93;;;24.90;51.00;;;;;;5027708;28;20037;-64
2023/08/13 06:44:20;;;;;;;3.08;1.20;;;24.90;51.00;;;;;;5046191;28;20037;-64
2023/08/13 06:46:49;;;;;;;2.15;0.90;;;24.90;51.00;;;;;;5015647;28;20042;-64
2023/08/13 06:49:15;;;;;;;2.30;0.90;;;24.90;50.90;;;;;;5016639;28;20044;-64
2023/08/13 06:51:41;;;;;;;1.55;0.80;;;24.90;50.90;;;;;;5014305;28;20036;-65
2023/08/13 06:54:07;;;;;;;1.95;1.02;;;24.90;50.90;;;;;;5021283;28;20203;-64
2023/08/13 06:56:35;;;;;;;2.30;0.90;;;24.90;50.90;;;;;;5022719;28;20769;-63
2023/08/13 06:59:02;;;;;;;3.50;1.00;;;24.90;50.90;;;;;;5023713;28;20041;-63
2023/08/13 07:01:29;;;;;;;2.38;0.90;;;24.90;51.00;;;;;;5019283;28;20102;-62
2023/08/13 07:03:56;;;;;;;2.63;1.00;;;24.90;51.60;;;;;;5026526;28;20073;-65
2023/08/13 07:06:23;;;;;;;4.05;1.50;;;24.90;51.00;;;;;;5021180;28;20041;-64
2023/08/13 07:08:49;;;;;;;3.40;1.13;;;25.00;51.10;;;;;;5025648;28;20434;-64
2023/08/13 07:11:15;;;;;;;1.83;0.88;;;24.90;51.00;;;;;;5025631;28;20032;-63
2023/08/13 07:13:41;;;;;;;3.40;1.13;;;25.00;51.10;;;;;;5022752;28;20041;-66
2023/08/13 07:16:12;;;;;;;2.25;0.80;;;25.00;51.10;;;;;;5030076;28;20041;-66
2023/08/13 07:18:38;;;;;;;3.00;1.10;;;25.00;51.10;;;;;;5031464;28;20037;-64
2023/08/13 07:21:06;;;;;;;2.13;0.95;;;25.00;51.10;;;;;;5037250;28;20451;-66
2023/08/13 07:23:32;;;;;;;2.65;0.90;;;25.00;51.10;;;;;;5041229;28;20029;-66
2023/08/13 07:25:58;;;;;;;2.40;1.15;;;25.00;51.10;;;;;;5036417;28;20100;-66
2023/08/13 07:28:24;;;;;;;4.00;1.08;;;25.00;51.00;;;;;;5042551;28;20436;-65
2023/08/13 07:30:50;;;;;;;2.30;0.98;;;25.00;51.00;;;;;;5044308;28;20040;-64
2023/08/13 07:33:16;;;;;;;2.35;1.00;;;25.00;51.00;;;;;;5052768;28;20498;-64
2023/08/13 07:35:42;;;;;;;3.95;1.20;;;25.00;51.00;;;;;;5040683;28;20124;-66
2023/08/13 07:38:08;;;;;;;3.65;1.13;;;25.00;51.00;;;;;;5041542;28;20120;-66
2023/08/13 07:40:34;;;;;;;3.63;1.10;;;25.00;50.90;;;;;;5045620;28;20056;-66
2023/08/13 07:43:01;;;;;;;2.63;0.80;;;25.00;50.90;;;;;;5038820;28;20032;-64
2023/08/13 07:45:29;;;;;;;2.80;1.20;;;25.10;51.00;;;;;;5043106;28;20025;-65
2023/08/13 07:47:56;;;;;;;3.10;1.30;;;25.00;50.90;;;;;;5083526;28;20143;-64
2023/08/13 07:50:22;;;;;;;3.67;1.27;;;25.00;50.90;;;;;;5082549;28;20027;-64
2023/08/13 07:52:50;;;;;;;3.72;1.00;;;25.10;51.00;;;;;;5083793;28;20416;-65
2023/08/13 07:55:16;;;;;;;1.77;0.68;;;25.10;51.00;;;;;;5075627;28;20092;-68
2023/08/13 07:57:42;;;;;;;3.28;1.17;;;25.10;50.90;;;;;;5060716;28;20040;-66
2023/08/13 08:00:10;;;;;;;2.83;0.88;;;25.10;50.90;;;;;;5086514;28;20312;-66
2023/08/13 08:02:39;;;;;;;2.80;0.90;;;25.10;50.90;;;;;;5086546;28;20020;-66
2023/08/13 08:05:07;;;;;;;2.38;1.00;;;25.10;50.90;;;;;;5078635;28;20037;-66
2023/08/13 08:07:32;;;;;;;2.25;0.88;;;25.10;50.90;;;;;;5047312;28;20111;-66
2023/08/13 08:09:58;;;;;;;2.70;1.00;;;25.20;51.00;;;;;;5083327;28;20083;-65
2023/08/13 08:12:24;;;;;;;2.88;0.95;;;25.20;51.00;;;;;;5039228;28;20139;-66
2023/08/13 08:14:50;;;;;;;2.67;1.02;;;25.20;51.00;;;;;;5075774;28;20288;-70
2023/08/13 08:17:16;;;;;;;2.67;1.05;;;25.20;51.00;;;;;;5056909;28;20051;-68
2023/08/13 08:19:42;;;;;;;2.10;0.95;;;25.20;51.10;;;;;;5084957;28;20032;-68
2023/08/13 08:22:08;;;;;;;1.73;0.70;;;25.20;51.10;;;;;;5075678;28;20521;-69
2023/08/13 08:24:34;;;;;;;2.67;0.77;;;25.20;51.10;;;;;;5076084;28;20021;-65
2023/08/13 08:27:00;;;;;;;3.03;0.93;;;25.20;51.10;;;;;;5054255;28;20435;-65
2023/08/13 08:29:26;;;;;;;2.33;0.90;;;25.20;51.80;;;;;;5069079;28;20114;-65
2023/08/13 08:31:52;;;;;;;4.28;1.00;;;25.20;51.20;;;;;;5086965;28;20035;-62
2023/08/13 08:34:18;;;;;;;2.88;1.40;;;25.20;51.20;;;;;;5079707;28;20119;-62
2023/08/13 08:36:44;;;;;;;4.75;1.60;;;25.30;51.40;;;;;;5054633;28;20064;-65
2023/08/13 08:39:10;;;;;;;4.13;1.27;;;25.30;51.40;;;;;;5075053;28;20119;-66
2023/08/13 08:41:40;;;;;;;3.33;1.20;;;25.30;51.40;;;;;;5054390;28;20064;-64
2023/08/13 08:44:13;;;;;;;8.48;2.40;;;25.30;52.00;;;;;;5073687;28;20036;-62
2023/08/13 08:46:39;;;;;;;9.45;4.68;;;25.30;51.50;;;;;;5076956;28;20086;-64
2023/08/13 08:49:05;;;;;;;13.73;6.47;;;25.30;51.90;;;;;;5065551;28;20071;-66
2023/08/13 08:51:32;;;;;;;18.63;6.85;;;25.30;52.50;;;;;;5065049;28;20028;-69
2023/08/13 08:53:59;;;;;;;13.18;6.00;;;25.30;53.30;;;;;;5083654;28;20447;-70
2023/08/13 08:56:26;;;;;;;14.20;5.32;;;25.40;53.80;;;;;;5087244;28;20169;-66
2023/08/13 08:58:52;;;;;;;11.07;4.50;;;25.40;53.90;;;;;;5075832;28;20328;-67
2023/08/13 09:01:17;;;;;;;13.60;5.57;;;25.40;53.80;;;;;;5081838;28;20027;-66
2023/08/13 09:03:43;;;;;;;12.18;5.22;;;25.40;53.90;;;;;;5087288;28;20099;-65
2023/08/13 09:06:09;;;;;;;12.50;4.88;;;25.40;54.30;;;;;;5068025;28;20169;-65
2023/08/13 09:08:35;;;;;;;16.80;6.75;;;25.50;54.60;;;;;;5071241;28;20027;-64
2023/08/13 09:11:02;;;;;;;17.75;7.53;;;25.50;54.90;;;;;;5086381;28;20039;-66
2023/08/13 09:13:28;;;;;;;19.00;7.32;;;25.50;55.30;;;;;;5084860;28;20028;-64
2023/08/13 09:15:54;;;;;;;14.60;6.30;;;25.50;55.40;;;;;;5081793;28;20047;-66
2023/08/13 09:18:20;;;;;;;16.60;7.22;;;25.50;55.40;;;;;;5076532;28;20024;-63
2023/08/13 09:20:47;;;;;;;14.77;7.15;;;25.50;55.70;;;;;;5084198;28;20027;-63
2023/08/13 09:23:23;;;;;;;15.95;6.95;;;25.60;56.20;;;;;;5084423;28;20034;-65
2023/08/13 09:25:58;;;;;;;20.15;8.23;;;25.60;56.50;;;;;;5082121;28;20040;-64
2023/08/13 09:28:25;;;;;;;17.42;7.20;;;25.60;56.50;;;;;;5081474;28;20028;-64
2023/08/13 09:30:50;;;;;;;13.18;6.63;;;25.60;56.40;;;;;;5084591;28;20084;-65
2023/08/13 09:33:17;;;;;;;13.68;5.90;;;25.60;56.50;;;;;;5081008;28;20483;-70
2023/08/13 09:35:45;;;;;;;10.18;4.60;;;25.60;56.30;;;;;;5080301;28;20127;-65
2023/08/13 09:38:11;;;;;;;9.07;4.13;;;25.70;55.90;;;;;;5067986;28;20431;-67
2023/08/13 09:40:38;;;;;;;9.13;3.63;;;25.70;55.50;;;;;;5080095;28;20038;-65
2023/08/13 09:43:09;;;;;;;8.43;3.35;;;25.70;55.00;;;;;;5084498;28;20040;-60
2023/08/13 09:45:35;;;;;;;7.05;2.40;;;25.70;54.60;;;;;;5061731;28;20050;-60
2023/08/13 09:48:06;;;;;;;5.38;2.40;;;25.70;54.10;;;;;;5076332;28;20115;-62
2023/08/13 09:50:40;;;;;;;3.60;1.70;;;25.70;53.60;;;;;;5082274;28;20024;-61
2023/08/13 09:53:11;;;;;;;5.70;1.67;;;25.80;53.30;;;;;;5068646;28;20024;-61
2023/08/13 09:55:44;;;;;;;3.17;1.40;;;25.80;53.00;;;;;;5086423;28;20168;-60
2023/08/13 09:58:14;;;;;;;3.25;1.30;;;25.70;52.60;;;;;;5076272;28;20123;-61
2023/08/13 10:00:40;;;;;;;3.88;1.40;;;25.70;52.40;;;;;;5081457;28;20023;-60
2023/08/13 10:03:08;;;;;;;2.88;1.38;;;25.70;52.20;;;;;;5077614;28;20131;-59
2023/08/13 10:05:36;;;;;;;2.90;1.08;;;25.80;52.10;;;;;;5047422;28;20680;-65
2023/08/13 10:08:02;;;;;;;3.00;1.42;;;25.80;51.90;;;;;;5068188;28;20155;-67
2023/08/13 10:10:30;;;;;;;3.13;1.15;;;25.80;51.90;;;;;;5082404;28;20036;-66
2023/08/13 10:12:56;;;;;;;3.53;1.10;;;25.80;51.90;;;;;;5073235;28;20470;-67
2023/08/13 10:15:22;;;;;;;3.30;1.40;;;25.80;51.90;;;;;;5073327;28;20193;-67
2023/08/13 10:17:49;;;;;;;3.47;1.20;;;25.80;51.80;;;;;;5058955;28;20025;-66
2023/08/13 10:20:18;;;;;;;2.67;1.05;;;25.80;51.80;;;;;;5070928;28;20060;-66
2023/08/13 10:22:46;;;;;;;3.25;1.30;;;25.90;51.70;;;;;;5063846;28;20116;-65
2023/08/13 10:25:27;;;;;;;2.50;0.90;;;25.90;51.70;;;;;;5049487;28;20388;-69
2023/08/13 10:27:54;;;;;;;3.20;1.08;;;25.80;51.50;;;;;;5073488;28;20356;-65
2023/08/13 10:30:20;;;;;;;3.90;1.35;;;25.90;51.40;;;;;;5071064;28;20105;-66
2023/08/13 10:33:00;;;;;;;4.47;1.33;;;25.80;51.20;;;;;;5051328;28;20167;-68
2023/08/13 10:35:38;;;;;;;2.22;0.93;;;25.90;51.10;;;;;;5069950;28;20047;-67
2023/08/13 10:38:05;;;;;;;3.28;1.23;;;25.90;50.90;;;;;;5073462;28;20024;-65
2023/08/13 10:40:32;;;;;;;3.17;0.93;;;25.90;50.80;;;;;;5072917;28;20427;-69
2023/08/13 10:42:59;;;;;;;3.38;0.90;;;25.90;50.70;;;;;;5049304;28;20108;-68
2023/08/13 10:45:32;;;;;;;2.75;0.90;;;25.90;50.60;;;;;;5078081;28;20173;-63
2023/08/13 10:48:01;;;;;;;4.23;1.20;;;25.90;50.40;;;;;;5071631;28;20055;-65
2023/08/13 10:50:30;;;;;;;1.85;0.90;;;25.90;50.40;;;;;;5080219;28;20077;-69
2023/08/13 10:53:12;;;;;;;2.13;0.75;;;25.90;50.30;;;;;;5077961;28;20213;-71
2023/08/13 10:55:48;;;;;;;3.85;0.98;;;25.90;50.20;;;;;;5088879;28;20046;-67
2023/08/13 10:58:30;;;;;;;2.95;1.00;;;25.90;50.20;;;;;;5086297;28;20303;-65
2023/08/13 11:01:19;;;;;;;3.15;1.10;;;25.90;50.10;;;;;;5084979;28;20151;-66
2023/08/13 11:03:46;;;;;;;2.65;0.90;;;25.90;50.00;;;;;;5082748;28;20065;-67
2023/08/13 11:06:14;;;;;;;2.40;0.80;;;25.90;50.10;;;;;;5080622;28;20087;-66
2023/08/13 11:08:43;;;;;;;4.20;1.17;;;25.90;50.00;;;;;;5082783;28;20070;-68
2023/08/13 11:11:11;;;;;;;3.13;1.20;;;25.90;50.00;;;;;;5085129;28;20029;-68
2023/08/13 11:13:37;;;;;;;2.80;1.10;;;25.90;50.00;;;;;;5063417;28;20317;-70
2023/08/13 11:16:03;;;;;;;3.22;1.00;;;25.90;50.00;;;;;;5073697;28;20041;-67
2023/08/13 11:18:29;;;;;;;2.92;0.82;;;25.90;49.90;;;;;;5053419;28;20016;-65
2023/08/13 11:20:55;;;;;;;2.60;1.08;;;26.00;50.00;;;;;;5081830;28;20020;-71
2023/08/13 11:23:22;;;;;;;2.58;1.20;;;26.00;50.00;;;;;;5085880;28;20040;-69
2023/08/13 11:25:49;;;;;;;3.33;0.90;;;26.00;49.90;;;;;;5072118;28;20053;-69
2023/08/13 11:28:26;;;;;;;2.65;1.00;;;26.00;49.90;;;;;;5076475;28;20032;-67
2023/08/13 11:30:54;;;;;;;3.28;0.90;;;26.00;49.90;;;;;;5072236;28;20048;-68
2023/08/13 11:33:20;;;;;;;2.63;1.02;;;25.90;49.80;;;;;;5055920;28;20443;-70
2023/08/13 11:35:47;;;;;;;1.95;0.90;;;26.00;49.80;;;;;;5084035;28;20055;-71
2023/08/13 11:38:14;;;;;;;1.95;0.70;;;26.00;49.80;;;;;;5057828;28;20056;-66
2023/08/13 11:40:40;;;;;;;2.55;0.90;;;25.90;49.70;;;;;;5072352;28;20119;-66
2023/08/13 11:43:09;;;;;;;2.22;0.90;;;25.90;49.80;;;;;;5073954;28;20087;-65
2023/08/13 11:45:36;;;;;;;3.03;0.77;;;25.90;49.70;;;;;;5071265;28;20403;-65
2023/08/13 11:48:20;;;;;;;2.50;0.85;;;26.00;49.80;;;;;;5072280;28;20401;-65
2023/08/13 11:50:55;;;;;;;4.00;1.20;;;25.90;49.70;;;;;;5075995;28;20103;-65
2023/08/13 11:53:21;;;;;;;2.60;0.90;;;25.90;49.70;;;;;;5072516;28;20066;-69
2023/08/13 11:55:49;;;;;;;2.33;1.00;;;25.90;49.80;;;;;;5073906;28;20058;-69
2023/08/13 11:58:19;;;;;;;4.28;1.00;;;25.90;49.80;;;;;;5086446;28;20020;-71
2023/08/13 12:00:49;;;;;;;2.25;1.00;;;25.90;49.80;;;;;;5079661;28;20044;-71
2023/08/13 12:03:16;;;;;;;1.90;0.93;;;25.90;49.80;;;;;;5040521;28;20129;-68
2023/08/13 12:05:42;;;;;;;2.80;0.90;;;26.00;49.90;;;;;;5062698;28;20086;-66
2023/08/13 12:08:09;;;;;;;2.70;0.85;;;26.00;49.90;;;;;;5073315;28;20339;-70
2023/08/13 12:10:36;;;;;;;2.90;1.00;;;25.90;49.70;;;;;;5089567;28;20172;-68
2023/08/13 12:13:05;;;;;;;2.50;0.82;;;25.90;49.70;;;;;;5074111;28;20028;-68
2023/08/13 12:15:31;;;;;;;1.88;0.75;;;25.90;49.70;;;;;;5078450;28;20181;-65
2023/08/13 12:17:58;;;;;;;4.82;1.20;;;25.90;49.60;;;;;;5080288;28;20043;-65
2023/08/13 12:20:25;;;;;;;1.83;0.80;;;25.90;49.60;;;;;;5072135;28;20206;-68
2023/08/13 12:22:51;;;;;;;1.60;0.88;;;25.90;49.60;;;;;;5061618;28;20036;-67
2023/08/13 12:25:17;;;;;;;2.08;0.82;;;25.90;49.60;;;;;;5065335;28;20166;-67
2023/08/13 12:27:45;;;;;;;1.98;0.70;;;25.90;49.50;;;;;;5074463;28;20031;-66
2023/08/13 12:30:12;;;;;;;2.10;0.80;;;25.90;49.50;;;;;;5053833;28;20044;-66
2023/08/13 12:32:38;;;;;;;3.28;0.90;;;25.90;49.50;;;;;;5047356;28;20027;-69
2023/08/13 12:35:04;;;;;;;2.05;1.00;;;26.00;49.60;;;;;;5067519;28;20114;-68
2023/08/13 12:37:30;;;;;;;2.25;1.08;;;26.00;49.60;;;;;;5064956;28;20047;-65
2023/08/13 12:39:56;;;;;;;2.13;1.02;;;26.00;49.60;;;;;;5064184;28;20451;-68
2023/08/13 12:42:22;;;;;;;3.40;1.15;;;26.00;49.60;;;;;;5045443;28;20109;-68
2023/08/13 12:44:48;;;;;;;2.90;1.00;;;26.00;49.60;;;;;;5073636;28;20044;-67
2023/08/13 12:47:14;;;;;;;3.70;1.20;;;26.00;49.50;;;;;;5025068;28;1168036;-67